createdAt,value
2023-04-02T00:00:46.671Z,94360.00
2023-04-02T00:01:46.714Z,94360.00
2023-04-02T00:02:46.698Z,94358.00
2023-04-02T00:03:46.904Z,94354.00
2023-04-02T00:04:46.642Z,94356.00
2023-04-02T00:05:46.639Z,94358.00
2023-04-02T00:06:46.663Z,94358.00
2023-04-02T00:07:46.632Z,94358.00
2023-04-02T00:08:46.621Z,94358.00
2023-04-02T00:09:46.620Z,94358.00
2023-04-02T00:10:46.643Z,94358.00
2023-04-02T00:11:46.627Z,94360.00
2023-04-02T00:12:46.650Z,94364.00
2023-04-02T00:13:46.628Z,94360.00
2023-04-02T00:14:46.684Z,94364.00
2023-04-02T00:15:46.620Z,94362.00
2023-04-02T00:16:46.733Z,94364.00
2023-04-02T00:17:46.618Z,94364.00
2023-04-02T00:18:46.613Z,94364.00
2023-04-02T00:19:46.614Z,94368.00
2023-04-02T00:20:46.596Z,94366.00
2023-04-02T00:21:46.593Z,94364.00
2023-04-02T00:22:46.605Z,94364.00
2023-04-02T00:23:46.585Z,94362.00
2023-04-02T00:24:46.581Z,94364.00
2023-04-02T00:25:46.569Z,94364.00
2023-04-02T00:26:46.567Z,94364.00
2023-04-02T00:27:46.564Z,94366.00
2023-04-02T00:28:46.591Z,94366.00
2023-04-02T00:29:46.559Z,94366.00
2023-04-02T00:30:46.572Z,94368.00
2023-04-02T00:31:46.673Z,94366.00
2023-04-02T00:32:46.654Z,94368.00
2023-04-02T00:33:46.630Z,94368.00
2023-04-02T00:34:46.648Z,94368.00
2023-04-02T00:35:46.683Z,94370.00
2023-04-02T00:36:46.690Z,94372.00
2023-04-02T00:37:46.712Z,94379.00
2023-04-02T00:38:48.278Z,94379.00
2023-04-02T00:39:46.722Z,94381.00
2023-04-02T00:40:46.723Z,94368.00
2023-04-02T00:41:46.734Z,94372.00
2023-04-02T00:42:46.723Z,94372.00
2023-04-02T00:43:46.747Z,94370.00
2023-04-02T00:44:46.737Z,94381.00
2023-04-02T00:45:46.714Z,94379.00
2023-04-02T00:46:46.732Z,94372.00
2023-04-02T00:47:46.728Z,94372.00
2023-04-02T00:48:46.684Z,94372.00
2023-04-02T00:49:46.681Z,94368.00
2023-04-02T00:50:46.664Z,94368.00
2023-04-02T00:51:46.654Z,94368.00
2023-04-02T00:52:46.675Z,94379.00
2023-04-02T00:53:46.630Z,94372.00
2023-04-02T00:54:46.614Z,94379.00
2023-04-02T00:55:46.602Z,94370.00
2023-04-02T00:56:46.624Z,94372.00
2023-04-02T00:57:46.589Z,94379.00
2023-04-02T00:58:46.585Z,94379.00
2023-04-02T00:59:46.578Z,94372.00
2023-04-02T01:00:46.589Z,94370.00
2023-04-02T01:01:46.598Z,94370.00
2023-04-02T01:02:46.682Z,94370.00
2023-04-02T01:03:46.776Z,94368.00
2023-04-02T01:04:46.536Z,94366.00
2023-04-02T01:05:46.519Z,94364.00
2023-04-02T01:06:46.516Z,94368.00
2023-04-02T01:07:46.564Z,94366.00
2023-04-02T01:08:46.502Z,94368.00
2023-04-02T01:09:46.500Z,94364.00
2023-04-02T01:10:46.482Z,94368.00
2023-04-02T01:11:46.487Z,94364.00
2023-04-02T01:12:46.484Z,94368.00
2023-04-02T01:13:46.477Z,94366.00
2023-04-02T01:14:46.454Z,94366.00
2023-04-02T01:15:46.525Z,94368.00
2023-04-02T01:16:46.472Z,94370.00
2023-04-02T01:17:46.470Z,94372.00
2023-04-02T01:18:46.477Z,94370.00
2023-04-02T01:19:46.425Z,94372.00
2023-04-02T01:20:46.416Z,94372.00
2023-04-02T01:21:46.417Z,94372.00
2023-04-02T01:22:46.427Z,94372.00
2023-04-02T01:23:46.385Z,94372.00
2023-04-02T01:24:46.385Z,94370.00
2023-04-02T01:25:46.403Z,94379.00
2023-04-02T01:26:46.370Z,94372.00
2023-04-02T01:27:46.373Z,94372.00
2023-04-02T01:28:46.365Z,94372.00
2023-04-02T01:29:46.389Z,94372.00
2023-04-02T01:30:46.345Z,94372.00
2023-04-02T01:31:46.437Z,94372.00
2023-04-02T01:32:46.433Z,94370.00
2023-04-02T01:33:46.323Z,94372.00
2023-04-02T01:34:46.325Z,94372.00
2023-04-02T01:35:46.419Z,94379.00
2023-04-02T01:36:46.320Z,94381.00
2023-04-02T01:37:46.306Z,94381.00
2023-04-02T01:38:46.320Z,94381.00
2023-04-02T01:39:46.342Z,94381.00
2023-04-02T01:40:46.391Z,94383.00
2023-04-02T01:41:46.398Z,94385.00
2023-04-02T01:42:46.393Z,94387.00
2023-04-02T01:43:46.400Z,94385.00
2023-04-02T01:44:46.415Z,94389.00
2023-04-02T01:45:46.460Z,94387.00
2023-04-02T01:46:46.523Z,94389.00
2023-04-02T01:47:46.528Z,94387.00
2023-04-02T01:48:46.503Z,94389.00
2023-04-02T01:49:46.526Z,94389.00
2023-04-02T01:50:46.506Z,94391.00
2023-04-02T01:51:46.523Z,94393.00
2023-04-02T01:52:46.527Z,94395.00
2023-04-02T01:53:46.571Z,94395.00
2023-04-02T01:54:46.638Z,94397.00
2023-04-02T01:55:46.592Z,94395.00
2023-04-02T01:56:46.616Z,94395.00
2023-04-02T01:57:46.627Z,94397.00
2023-04-02T01:58:46.648Z,94397.00
2023-04-02T01:59:46.703Z,94397.00
2023-04-02T02:00:46.740Z,94399.00
2023-04-02T02:01:46.751Z,94401.00
2023-04-02T02:02:46.824Z,94399.00
2023-04-02T02:03:46.783Z,94403.00
2023-04-02T02:04:46.801Z,94405.00
2023-04-02T02:05:46.812Z,94405.00
2023-04-02T02:06:46.800Z,94407.00
2023-04-02T02:07:46.824Z,94409.00
2023-04-02T02:08:46.860Z,94411.00
2023-04-02T02:09:46.883Z,94413.00
2023-04-02T02:10:46.878Z,94415.00
2023-04-02T02:11:46.892Z,94417.00
2023-04-02T02:12:46.904Z,94417.00
2023-04-02T02:13:46.917Z,94417.00
2023-04-02T02:14:46.992Z,94418.00
2023-04-02T02:15:46.961Z,94418.00
2023-04-02T02:16:47.032Z,94420.00
2023-04-02T02:17:47.065Z,94422.00
2023-04-02T02:18:47.013Z,94422.00
2023-04-02T02:19:47.042Z,94422.00
2023-04-02T02:20:47.118Z,94422.00
2023-04-02T02:21:47.079Z,94420.00
2023-04-02T02:22:47.135Z,94420.00
2023-04-02T02:23:47.137Z,94420.00
2023-04-02T02:24:47.130Z,94417.00
2023-04-02T02:25:47.185Z,94417.00
2023-04-02T02:26:47.188Z,94420.00
2023-04-02T02:27:47.235Z,94422.00
2023-04-02T02:28:47.227Z,94422.00
2023-04-02T02:29:47.240Z,94424.00
2023-04-02T02:30:47.254Z,94426.00
2023-04-02T02:31:47.342Z,94426.00
2023-04-02T02:32:47.313Z,94426.00
2023-04-02T02:33:47.311Z,94426.00
2023-04-02T02:34:47.308Z,94424.00
2023-04-02T02:35:47.333Z,94426.00
2023-04-02T02:36:47.359Z,94426.00
2023-04-02T02:37:47.373Z,94430.00
2023-04-02T02:38:47.359Z,94432.00
2023-04-02T02:39:47.385Z,94432.00
2023-04-02T02:40:47.398Z,94434.00
2023-04-02T02:41:47.427Z,94434.00
2023-04-02T02:42:47.461Z,94434.00
2023-04-02T02:43:47.437Z,94436.00
2023-04-02T02:44:47.453Z,94438.00
2023-04-02T02:45:47.479Z,94438.00
2023-04-02T02:46:47.490Z,94438.00
2023-04-02T02:47:47.575Z,94438.00
2023-04-02T02:48:47.533Z,94440.00
2023-04-02T02:49:47.565Z,94440.00
2023-04-02T02:50:47.577Z,94438.00
2023-04-02T02:51:47.591Z,94444.00
2023-04-02T02:52:47.647Z,94442.00
2023-04-02T02:53:47.635Z,94446.00
2023-04-02T02:54:47.655Z,94446.00
2023-04-02T02:55:47.682Z,94448.00
2023-04-02T02:56:47.711Z,94446.00
2023-04-02T02:57:47.727Z,94450.00
2023-04-02T02:58:47.744Z,94454.00
2023-04-02T02:59:47.762Z,94452.00
2023-04-02T03:00:47.777Z,94452.00
2023-04-02T03:01:47.829Z,94456.00
2023-04-02T03:02:47.934Z,94454.00
2023-04-02T03:03:47.985Z,94452.00
2023-04-02T03:04:47.860Z,94454.00
2023-04-02T03:05:47.894Z,94454.00
2023-04-02T03:06:47.902Z,94456.00
2023-04-02T03:07:47.933Z,94456.00
2023-04-02T03:08:47.976Z,94456.00
2023-04-02T03:09:47.957Z,94456.00
2023-04-02T03:10:47.985Z,94456.00
2023-04-02T03:11:47.987Z,94458.00
2023-04-02T03:12:48.003Z,94458.00
2023-04-02T03:13:48.027Z,94454.00
2023-04-02T03:14:48.039Z,94454.00
2023-04-02T03:15:48.077Z,94454.00
2023-04-02T03:16:48.068Z,94454.00
2023-04-02T03:17:48.119Z,94456.00
2023-04-02T03:18:48.115Z,94456.00
2023-04-02T03:19:48.122Z,94456.00
2023-04-02T03:20:48.153Z,94458.00
2023-04-02T03:21:48.169Z,94462.00
2023-04-02T03:22:48.192Z,94464.00
2023-04-02T03:23:48.223Z,94465.00
2023-04-02T03:24:48.259Z,94469.00
2023-04-02T03:25:48.260Z,94469.00
2023-04-02T03:26:48.273Z,94471.00
2023-04-02T03:27:48.297Z,94471.00
2023-04-02T03:28:48.321Z,94467.00
2023-04-02T03:29:48.332Z,94469.00
2023-04-02T03:30:48.353Z,94465.00
2023-04-02T03:31:48.367Z,94467.00
2023-04-02T03:32:48.447Z,94467.00
2023-04-02T03:33:48.415Z,94467.00
2023-04-02T03:34:48.422Z,94471.00
2023-04-02T03:35:48.451Z,94475.00
2023-04-02T03:36:48.457Z,94477.00
2023-04-02T03:37:48.475Z,94477.00
2023-04-02T03:38:48.498Z,94477.00
2023-04-02T03:39:48.515Z,94481.00
2023-04-02T03:40:48.548Z,94479.00
2023-04-02T03:41:48.534Z,94483.00
2023-04-02T03:42:48.556Z,94485.00
2023-04-02T03:43:48.568Z,94481.00
2023-04-02T03:44:48.585Z,94483.00
2023-04-02T03:45:48.586Z,94483.00
2023-04-02T03:46:48.719Z,94485.00
2023-04-02T03:47:48.662Z,94485.00
2023-04-02T03:48:48.608Z,94485.00
2023-04-02T03:49:48.617Z,94485.00
2023-04-02T03:50:48.628Z,94487.00
2023-04-02T03:51:48.633Z,94485.00
2023-04-02T03:52:48.641Z,94491.00
2023-04-02T03:53:48.642Z,94491.00
2023-04-02T03:54:54.186Z,94491.00
2023-04-02T03:55:48.652Z,94491.00
2023-04-02T03:56:48.702Z,94491.00
2023-04-02T03:57:48.647Z,94493.00
2023-04-02T03:58:48.647Z,94493.00
2023-04-02T03:59:48.649Z,94493.00
2023-04-02T04:00:48.658Z,94495.00
2023-04-02T04:01:48.682Z,94499.00
2023-04-02T04:02:48.670Z,94503.00
2023-04-02T04:03:48.720Z,94501.00
2023-04-02T04:04:48.651Z,94505.00
2023-04-02T04:05:48.646Z,94505.00
2023-04-02T04:06:48.648Z,94503.00
2023-04-02T04:07:48.644Z,94505.00
2023-04-02T04:08:48.652Z,94505.00
2023-04-02T04:09:48.664Z,94501.00
2023-04-02T04:10:48.690Z,94505.00
2023-04-02T04:11:48.652Z,94503.00
2023-04-02T04:12:48.676Z,94503.00
2023-04-02T04:13:48.653Z,94501.00
2023-04-02T04:14:48.662Z,94501.00
2023-04-02T04:15:48.646Z,94503.00
2023-04-02T04:16:48.685Z,94507.00
2023-04-02T04:17:48.697Z,94511.00
2023-04-02T04:18:48.655Z,94511.00
2023-04-02T04:19:48.651Z,94517.00
2023-04-02T04:20:48.648Z,94517.00
2023-04-02T04:21:48.654Z,94517.00
2023-04-02T04:22:48.636Z,94517.00
2023-04-02T04:23:48.636Z,94517.00
2023-04-02T04:24:48.634Z,94517.00
2023-04-02T04:25:48.634Z,94517.00
2023-04-02T04:26:48.626Z,94515.00
2023-04-02T04:27:48.629Z,94517.00
2023-04-02T04:28:48.655Z,94519.00
2023-04-02T04:29:48.650Z,94519.00
2023-04-02T04:30:48.657Z,94522.00
2023-04-02T04:31:48.679Z,94522.00
2023-04-02T04:32:48.645Z,94522.00
2023-04-02T04:33:48.609Z,94524.00
2023-04-02T04:34:48.603Z,94526.00
2023-04-02T04:35:48.631Z,94528.00
2023-04-02T04:36:48.600Z,94526.00
2023-04-02T04:37:48.592Z,94530.00
2023-04-02T04:38:48.594Z,94530.00
2023-04-02T04:39:48.593Z,94530.00
2023-04-02T04:40:48.578Z,94534.00
2023-04-02T04:41:48.572Z,94534.00
2023-04-02T04:42:48.564Z,94536.00
2023-04-02T04:43:48.555Z,94538.00
2023-04-02T04:44:48.591Z,94540.00
2023-04-02T04:45:48.567Z,94544.00
2023-04-02T04:46:48.537Z,94544.00
2023-04-02T04:47:48.575Z,94548.00
2023-04-02T04:48:48.535Z,94548.00
2023-04-02T04:49:48.539Z,94548.00
2023-04-02T04:50:48.534Z,94550.00
2023-04-02T04:51:48.542Z,94550.00
2023-04-02T04:52:48.537Z,94552.00
2023-04-02T04:53:48.537Z,94554.00
2023-04-02T04:54:48.531Z,94558.00
2023-04-02T04:55:48.530Z,94560.00
2023-04-02T04:56:48.594Z,94558.00
2023-04-02T04:57:48.536Z,94556.00
2023-04-02T04:58:48.533Z,94558.00
2023-04-02T04:59:48.532Z,94562.00
2023-04-02T05:00:50.126Z,94562.00
2023-04-02T05:01:48.801Z,94560.00
2023-04-02T05:02:48.859Z,94562.00
2023-04-02T05:03:48.723Z,94562.00
2023-04-02T05:04:48.776Z,94562.00
2023-04-02T05:05:48.720Z,94562.00
2023-04-02T05:06:48.728Z,94562.00
2023-04-02T05:07:48.729Z,94562.00
2023-04-02T05:08:48.735Z,94564.00
2023-04-02T05:09:48.725Z,94562.00
2023-04-02T05:10:48.727Z,94564.00
2023-04-02T05:11:48.736Z,94566.00
2023-04-02T05:12:48.729Z,94564.00
2023-04-02T05:13:48.726Z,94566.00
2023-04-02T05:14:48.720Z,94564.00
2023-04-02T05:15:48.733Z,94564.00
2023-04-02T05:16:48.739Z,94566.00
2023-04-02T05:17:48.889Z,94567.00
2023-04-02T05:18:48.723Z,94567.00
2023-04-02T05:19:48.733Z,94569.00
2023-04-02T05:20:48.725Z,94569.00
2023-04-02T05:21:48.723Z,94571.00
2023-04-02T05:22:48.733Z,94573.00
2023-04-02T05:23:49.163Z,94573.00
2023-04-02T05:24:48.731Z,94575.00
2023-04-02T05:25:48.733Z,94575.00
2023-04-02T05:26:48.732Z,94573.00
2023-04-02T05:27:48.743Z,94577.00
2023-04-02T05:28:48.735Z,94577.00
2023-04-02T05:29:48.733Z,94579.00
2023-04-02T05:30:48.732Z,94581.00
2023-04-02T05:31:48.851Z,94581.00
2023-04-02T05:32:48.786Z,94585.00
2023-04-02T05:33:48.730Z,94583.00
2023-04-02T05:34:48.734Z,94585.00
2023-04-02T05:35:48.764Z,94585.00
2023-04-02T05:36:48.747Z,94587.00
2023-04-02T05:37:48.734Z,94591.00
2023-04-02T05:38:48.735Z,94591.00
2023-04-02T05:39:48.716Z,94595.00
2023-04-02T05:40:48.717Z,94595.00
2023-04-02T05:41:48.713Z,94595.00
2023-04-02T05:42:48.730Z,94595.00
2023-04-02T05:43:48.713Z,94595.00
2023-04-02T05:44:48.706Z,94597.00
2023-04-02T05:45:48.705Z,94599.00
2023-04-02T05:46:48.737Z,94601.00
2023-04-02T05:47:48.709Z,94601.00
2023-04-02T05:48:48.733Z,94603.00
2023-04-02T05:49:48.690Z,94603.00
2023-04-02T05:50:48.689Z,94603.00
2023-04-02T05:51:48.683Z,94603.00
2023-04-02T05:52:48.709Z,94603.00
2023-04-02T05:53:48.686Z,94605.00
2023-04-02T05:54:48.699Z,94607.00
2023-04-02T05:55:48.680Z,94609.00
2023-04-02T05:56:48.683Z,94609.00
2023-04-02T05:57:59.087Z,94609.00
2023-04-02T05:58:48.732Z,94611.00
2023-04-02T05:59:48.662Z,94613.00
2023-04-02T06:00:48.651Z,94618.00
2023-04-02T06:01:48.648Z,94618.00
2023-04-02T06:02:48.668Z,94616.00
2023-04-02T06:03:48.668Z,94616.00
2023-04-02T06:04:48.677Z,94618.00
2023-04-02T06:05:48.630Z,94622.00
2023-04-02T06:06:48.634Z,94624.00
2023-04-02T06:07:48.627Z,94622.00
2023-04-02T06:08:48.619Z,94628.00
2023-04-02T06:09:48.618Z,94636.00
2023-04-02T06:10:48.607Z,94636.00
2023-04-02T06:11:48.602Z,94636.00
2023-04-02T06:12:48.601Z,94636.00
2023-04-02T06:13:48.598Z,94636.00
2023-04-02T06:14:48.592Z,94636.00
2023-04-02T06:15:48.577Z,94636.00
2023-04-02T06:16:48.635Z,94642.00
2023-04-02T06:17:48.625Z,94640.00
2023-04-02T06:18:48.569Z,94640.00
2023-04-02T06:19:48.566Z,94644.00
2023-04-02T06:20:48.575Z,94642.00
2023-04-02T06:21:48.548Z,94642.00
2023-04-02T06:22:48.542Z,94642.00
2023-04-02T06:23:48.535Z,94642.00
2023-04-02T06:24:48.544Z,94644.00
2023-04-02T06:25:48.527Z,94644.00
2023-04-02T06:26:48.542Z,94640.00
2023-04-02T06:27:48.542Z,94640.00
2023-04-02T06:28:48.539Z,94644.00
2023-04-02T06:29:48.521Z,94644.00
2023-04-02T06:30:48.483Z,94644.00
2023-04-02T06:31:49.563Z,94642.00
2023-04-02T06:32:48.515Z,94642.00
2023-04-02T06:33:48.467Z,94642.00
2023-04-02T06:34:48.457Z,94642.00
2023-04-02T06:35:48.470Z,94642.00
2023-04-02T06:36:48.466Z,94642.00
2023-04-02T06:37:48.439Z,94642.00
2023-04-02T06:38:48.419Z,94640.00
2023-04-02T06:39:48.413Z,94642.00
2023-04-02T06:40:48.392Z,94644.00
2023-04-02T06:41:48.388Z,94644.00
2023-04-02T06:42:48.387Z,94644.00
2023-04-02T06:43:48.377Z,94644.00
2023-04-02T06:44:48.369Z,94644.00
2023-04-02T06:45:48.388Z,94644.00
2023-04-02T06:46:49.553Z,94644.00
2023-04-02T06:47:48.407Z,94646.00
2023-04-02T06:48:48.350Z,94650.00
2023-04-02T06:49:48.366Z,94650.00
2023-04-02T06:50:48.341Z,94650.00
2023-04-02T06:51:48.348Z,94652.00
2023-04-02T06:52:48.349Z,94654.00
2023-04-02T06:53:48.318Z,94656.00
2023-04-02T06:54:48.354Z,94656.00
2023-04-02T06:55:48.312Z,94654.00
2023-04-02T06:56:48.361Z,94656.00
2023-04-02T06:57:48.303Z,94658.00
2023-04-02T06:58:48.293Z,94658.00
2023-04-02T06:59:48.318Z,94658.00
2023-04-02T07:00:48.287Z,94658.00
2023-04-02T07:01:48.353Z,94660.00
2023-04-02T07:02:48.312Z,94656.00
2023-04-02T07:03:48.276Z,94656.00
2023-04-02T07:04:48.279Z,94656.00
2023-04-02T07:05:48.267Z,94656.00
2023-04-02T07:06:48.255Z,94656.00
2023-04-02T07:07:48.265Z,94656.00
2023-04-02T07:08:48.288Z,94654.00
2023-04-02T07:09:48.253Z,94654.00
2023-04-02T07:10:48.262Z,94656.00
2023-04-02T07:11:48.249Z,94656.00
2023-04-02T07:12:48.240Z,94656.00
2023-04-02T07:13:48.234Z,94656.00
2023-04-02T07:14:48.237Z,94658.00
2023-04-02T07:15:48.250Z,94660.00
2023-04-02T07:16:48.233Z,94658.00
2023-04-02T07:17:48.311Z,94660.00
2023-04-02T07:18:48.234Z,94658.00
2023-04-02T07:19:48.218Z,94658.00
2023-04-02T07:20:48.212Z,94660.00
2023-04-02T07:21:48.213Z,94658.00
2023-04-02T07:22:48.219Z,94660.00
2023-04-02T07:23:48.202Z,94660.00
2023-04-02T07:24:48.216Z,94660.00
2023-04-02T07:25:48.185Z,94658.00
2023-04-02T07:26:48.321Z,94662.00
2023-04-02T07:27:48.304Z,94662.00
2023-04-02T07:28:48.166Z,94660.00
2023-04-02T07:29:48.159Z,94660.00
2023-04-02T07:30:48.152Z,94662.00
2023-04-02T07:31:48.243Z,94658.00
2023-04-02T07:32:48.225Z,94660.00
2023-04-02T07:33:48.138Z,94662.00
2023-04-02T07:34:48.125Z,94662.00
2023-04-02T07:35:48.184Z,94662.00
2023-04-02T07:36:48.121Z,94662.00
2023-04-02T07:37:48.114Z,94665.00
2023-04-02T07:38:48.115Z,94665.00
2023-04-02T07:39:48.116Z,94665.00
2023-04-02T07:40:48.127Z,94667.00
2023-04-02T07:41:48.172Z,94669.00
2023-04-02T07:42:48.247Z,94671.00
2023-04-02T07:43:48.303Z,94669.00
2023-04-02T07:44:48.363Z,94673.00
2023-04-02T07:45:48.436Z,94671.00
2023-04-02T07:46:48.524Z,94673.00
2023-04-02T07:47:48.578Z,94677.00
2023-04-02T07:48:48.610Z,94677.00
2023-04-02T07:49:48.671Z,94675.00
2023-04-02T07:50:48.736Z,94677.00
2023-04-02T07:51:48.798Z,94677.00
2023-04-02T07:52:48.865Z,94679.00
2023-04-02T07:53:48.927Z,94681.00
2023-04-02T07:54:48.984Z,94683.00
2023-04-02T07:55:49.030Z,94677.00
2023-04-02T07:56:49.168Z,94683.00
2023-04-02T07:57:49.169Z,94681.00
2023-04-02T07:58:50.129Z,94681.00
2023-04-02T07:59:49.283Z,94683.00
2023-04-02T08:00:49.329Z,94685.00
2023-04-02T08:01:49.413Z,94685.00
2023-04-02T08:02:49.493Z,94683.00
2023-04-02T08:03:50.040Z,94681.00
2023-04-02T08:04:49.486Z,94683.00
2023-04-02T08:05:49.481Z,94683.00
2023-04-02T08:06:49.487Z,94683.00
2023-04-02T08:07:49.464Z,94683.00
2023-04-02T08:08:49.474Z,94683.00
2023-04-02T08:09:49.454Z,94683.00
2023-04-02T08:10:49.441Z,94687.00
2023-04-02T08:11:49.439Z,94683.00
2023-04-02T08:12:49.459Z,94681.00
2023-04-02T08:13:49.430Z,94685.00
2023-04-02T08:14:49.417Z,94685.00
2023-04-02T08:15:49.408Z,94683.00
2023-04-02T08:16:49.442Z,94685.00
2023-04-02T08:17:49.429Z,94681.00
2023-04-02T08:18:49.381Z,94689.00
2023-04-02T08:19:54.620Z,94687.00
2023-04-02T08:20:49.327Z,94687.00
2023-04-02T08:21:49.306Z,94685.00
2023-04-02T08:22:49.300Z,94685.00
2023-04-02T08:23:49.278Z,94687.00
2023-04-02T08:24:49.261Z,94687.00
2023-04-02T08:25:49.239Z,94685.00
2023-04-02T08:26:49.218Z,94685.00
2023-04-02T08:27:49.208Z,94689.00
2023-04-02T08:28:49.217Z,94687.00
2023-04-02T08:29:49.172Z,94691.00
2023-04-02T08:30:49.259Z,94687.00
2023-04-02T08:31:49.139Z,94689.00
2023-04-02T08:32:49.170Z,94687.00
2023-04-02T08:33:49.112Z,94687.00
2023-04-02T08:34:49.091Z,94687.00
2023-04-02T08:35:49.116Z,94685.00
2023-04-02T08:36:49.067Z,94685.00
2023-04-02T08:37:49.057Z,94687.00
2023-04-02T08:38:49.053Z,94687.00
2023-04-02T08:39:49.040Z,94689.00
2023-04-02T08:40:49.013Z,94689.00
2023-04-02T08:41:49.005Z,94687.00
2023-04-02T08:42:48.989Z,94691.00
2023-04-02T08:43:48.986Z,94689.00
2023-04-02T08:44:48.986Z,94689.00
2023-04-02T08:45:49.005Z,94687.00
2023-04-02T08:46:48.932Z,94689.00
2023-04-02T08:47:48.980Z,94689.00
2023-04-02T08:48:48.905Z,94691.00
2023-04-02T08:49:48.908Z,94691.00
2023-04-02T08:50:48.923Z,94691.00
2023-04-02T08:51:48.956Z,94689.00
2023-04-02T08:52:48.996Z,94689.00
2023-04-02T08:53:49.041Z,94689.00
2023-04-02T08:54:49.084Z,94689.00
2023-04-02T08:55:49.714Z,94689.00
2023-04-02T08:56:49.197Z,94689.00
2023-04-02T08:57:49.200Z,94687.00
2023-04-02T08:58:49.234Z,94689.00
2023-04-02T08:59:49.285Z,94685.00
2023-04-02T09:00:49.349Z,94685.00
2023-04-02T09:01:49.407Z,94685.00
2023-04-02T09:02:49.511Z,94687.00
2023-04-02T09:03:49.476Z,94687.00
2023-04-02T09:04:49.561Z,94685.00
2023-04-02T09:05:49.622Z,94687.00
2023-04-02T09:06:50.217Z,94689.00
2023-04-02T09:07:49.703Z,94685.00
2023-04-02T09:08:49.730Z,94689.00
2023-04-02T09:09:49.822Z,94687.00
2023-04-02T09:10:49.827Z,94687.00
2023-04-02T09:11:49.877Z,94685.00
2023-04-02T09:12:49.929Z,94687.00
2023-04-02T09:13:49.983Z,94691.00
2023-04-02T09:14:50.035Z,94691.00
2023-04-02T09:15:50.110Z,94693.00
2023-04-02T09:16:50.160Z,94693.00
2023-04-02T09:17:54.099Z,94691.00
2023-04-02T09:18:50.151Z,94693.00
2023-04-02T09:19:50.136Z,94693.00
2023-04-02T09:20:50.216Z,94697.00
2023-04-02T09:21:50.212Z,94697.00
2023-04-02T09:22:50.259Z,94697.00
2023-04-02T09:23:50.336Z,94693.00
2023-04-02T09:24:50.348Z,94693.00
2023-04-02T09:26:02.959Z,94691.00
2023-04-02T09:26:50.381Z,94693.00
2023-04-02T09:27:50.382Z,94691.00
2023-04-02T09:28:50.372Z,94691.00
2023-04-02T09:29:50.364Z,94693.00
2023-04-02T09:30:50.350Z,94695.00
2023-04-02T09:31:50.442Z,94693.00
2023-04-02T09:32:50.380Z,94693.00
2023-04-02T09:33:50.395Z,94693.00
2023-04-02T09:34:50.287Z,94691.00
2023-04-02T09:35:50.305Z,94691.00
2023-04-02T09:36:50.247Z,94691.00
2023-04-02T09:37:50.248Z,94691.00
2023-04-02T09:38:50.227Z,94691.00
2023-04-02T09:39:50.215Z,94693.00
2023-04-02T09:40:50.212Z,94693.00
2023-04-02T09:41:59.093Z,94693.00
2023-04-02T09:42:50.180Z,94695.00
2023-04-02T09:43:50.173Z,94695.00
2023-04-02T09:44:50.159Z,94693.00
2023-04-02T09:45:50.153Z,94695.00
2023-04-02T09:46:50.182Z,94697.00
2023-04-02T09:47:50.148Z,94697.00
2023-04-02T09:48:50.135Z,94697.00
2023-04-02T09:49:50.126Z,94697.00
2023-04-02T09:50:50.077Z,94695.00
2023-04-02T09:51:50.064Z,94695.00
2023-04-02T09:52:50.049Z,94695.00
2023-04-02T09:53:50.055Z,94699.00
2023-04-02T09:54:50.026Z,94699.00
2023-04-02T09:55:50.015Z,94699.00
2023-04-02T09:56:50.031Z,94699.00
2023-04-02T09:57:49.990Z,94699.00
2023-04-02T09:58:49.972Z,94699.00
2023-04-02T09:59:49.959Z,94699.00
2023-04-02T10:00:49.978Z,94695.00
2023-04-02T10:01:49.928Z,94697.00
2023-04-02T10:02:49.980Z,94697.00
2023-04-02T10:03:49.898Z,94701.00
2023-04-02T10:04:50.017Z,94703.00
2023-04-02T10:05:49.873Z,94705.00
2023-04-02T10:06:49.865Z,94701.00
2023-04-02T10:07:49.837Z,94703.00
2023-04-02T10:08:48.826Z,94701.00
2023-04-02T10:09:49.813Z,94705.00
2023-04-02T10:10:49.849Z,94705.00
2023-04-02T10:11:49.886Z,94705.00
2023-04-02T10:12:49.909Z,94709.00
2023-04-02T10:13:49.943Z,94703.00
2023-04-02T10:14:49.975Z,94703.00
2023-04-02T10:15:50.178Z,94707.00
2023-04-02T10:16:50.114Z,94705.00
2023-04-02T10:17:50.106Z,94705.00
2023-04-02T10:18:50.096Z,94705.00
2023-04-02T10:19:50.128Z,94705.00
2023-04-02T10:20:51.576Z,94705.00
2023-04-02T10:21:50.228Z,94703.00
2023-04-02T10:22:50.274Z,94703.00
2023-04-02T10:23:50.289Z,94701.00
2023-04-02T10:24:50.327Z,94699.00
2023-04-02T10:25:50.333Z,94703.00
2023-04-02T10:26:50.366Z,94705.00
2023-04-02T10:27:50.380Z,94703.00
2023-04-02T10:28:50.409Z,94705.00
2023-04-02T10:29:50.431Z,94705.00
2023-04-02T10:30:50.478Z,94703.00
2023-04-02T10:31:50.487Z,94707.00
2023-04-02T10:32:50.538Z,94705.00
2023-04-02T10:33:50.558Z,94707.00
2023-04-02T10:34:50.554Z,94711.00
2023-04-02T10:35:50.627Z,94711.00
2023-04-02T10:36:50.646Z,94711.00
2023-04-02T10:37:50.642Z,94714.00
2023-04-02T10:38:50.667Z,94713.00
2023-04-02T10:39:50.687Z,94714.00
2023-04-02T10:40:50.717Z,94714.00
2023-04-02T10:41:50.738Z,94716.00
2023-04-02T10:42:50.774Z,94716.00
2023-04-02T10:43:50.795Z,94716.00
2023-04-02T10:44:50.829Z,94716.00
2023-04-02T10:45:50.879Z,94714.00
2023-04-02T10:46:50.873Z,94714.00
2023-04-02T10:47:50.932Z,94716.00
2023-04-02T10:48:50.928Z,94718.00
2023-04-02T10:49:50.980Z,94720.00
2023-04-02T10:50:51.116Z,94718.00
2023-04-02T10:51:50.998Z,94720.00
2023-04-02T10:52:51.053Z,94720.00
2023-04-02T10:53:51.042Z,94718.00
2023-04-02T10:54:51.066Z,94720.00
2023-04-02T10:55:51.093Z,94720.00
2023-04-02T10:56:51.520Z,94724.00
2023-04-02T10:57:51.127Z,94722.00
2023-04-02T10:58:51.163Z,94722.00
2023-04-02T10:59:51.189Z,94726.00
2023-04-02T11:00:51.207Z,94726.00
2023-04-02T11:01:51.253Z,94726.00
2023-04-02T11:02:51.312Z,94732.00
2023-04-02T11:03:51.337Z,94730.00
2023-04-02T11:04:51.301Z,94734.00
2023-04-02T11:05:51.326Z,94734.00
2023-04-02T11:06:53.048Z,94732.00
2023-04-02T11:07:51.565Z,94734.00
2023-04-02T11:08:51.593Z,94734.00
2023-04-02T11:09:51.586Z,94736.00
2023-04-02T11:10:51.610Z,94736.00
2023-04-02T11:11:51.641Z,94736.00
2023-04-02T11:12:51.659Z,94734.00
2023-04-02T11:13:51.685Z,94734.00
2023-04-02T11:14:51.718Z,94738.00
2023-04-02T11:15:51.742Z,94736.00
2023-04-02T11:16:51.752Z,94736.00
2023-04-02T11:17:51.859Z,94736.00
2023-04-02T11:18:51.803Z,94736.00
2023-04-02T11:19:51.836Z,94734.00
2023-04-02T11:20:51.876Z,94736.00
2023-04-02T11:22:50.852Z,94738.00
2023-04-02T11:23:51.845Z,94740.00
2023-04-02T11:24:51.868Z,94742.00
2023-04-02T11:25:51.817Z,94740.00
2023-04-02T11:26:51.809Z,94740.00
2023-04-02T11:27:51.790Z,94742.00
2023-04-02T11:28:51.786Z,94740.00
2023-04-02T11:29:51.784Z,94744.00
2023-04-02T11:30:51.759Z,94746.00
2023-04-02T11:31:51.816Z,94746.00
2023-04-02T11:32:51.840Z,94748.00
2023-04-02T11:33:51.719Z,94748.00
2023-04-02T11:35:04.999Z,94750.00
2023-04-02T11:35:51.742Z,94754.00
2023-04-02T11:36:51.685Z,94756.00
2023-04-02T11:37:51.672Z,94756.00
2023-04-02T11:38:52.455Z,94756.00
2023-04-02T11:39:51.663Z,94758.00
2023-04-02T11:40:51.673Z,94760.00
2023-04-02T11:41:51.618Z,94761.00
2023-04-02T11:42:51.608Z,94761.00
2023-04-02T11:43:51.625Z,94763.00
2023-04-02T11:44:51.589Z,94763.00
2023-04-02T11:45:53.175Z,94763.00